createdAt,value
2022-10-21T00:02:02.482Z,100820.47
2022-10-21T00:04:29.184Z,100812.75
2022-10-21T00:06:55.913Z,100834.81
2022-10-21T00:09:22.584Z,100833.13
2022-10-21T00:11:51.393Z,100817.19
2022-10-21T00:14:18.168Z,100791.97
2022-10-21T00:16:44.945Z,100792.38
2022-10-21T00:19:13.920Z,100812.41
2022-10-21T00:21:41.107Z,100806.91
2022-10-21T00:24:07.914Z,100807.25
2022-10-21T00:26:37.613Z,100786.72
2022-10-21T00:29:05.472Z,100797.13
2022-10-21T00:31:33.928Z,100788.91
2022-10-21T00:34:00.807Z,100782.81
2022-10-21T00:36:27.840Z,100795.34
2022-10-21T00:38:54.517Z,100795.88
2022-10-21T00:41:21.239Z,100797.91
2022-10-21T00:43:55.517Z,100789.84
2022-10-21T00:46:29.851Z,100773.97
2022-10-21T00:48:58.990Z,100769.84
2022-10-21T00:51:26.250Z,100799.16
2022-10-21T00:54:00.966Z,100789.31
2022-10-21T00:56:30.108Z,100797.19
2022-10-21T00:58:59.684Z,100791.72
2022-10-21T01:01:26.469Z,100778.38
2022-10-21T01:03:53.246Z,100779.41
2022-10-21T01:06:26.110Z,100782.81
2022-10-21T01:08:57.003Z,100776.66
2022-10-21T01:11:26.114Z,100763.44
2022-10-21T01:14:08.126Z,100764.13
2022-10-21T01:16:56.394Z,100757.47
2022-10-21T01:19:23.297Z,100758.84
2022-10-21T01:22:00.986Z,100740.69
2022-10-21T01:24:46.635Z,100761.59
2022-10-21T01:27:46.647Z,100733.88
2022-10-21T01:30:25.356Z,100746.00
2022-10-21T01:33:07.025Z,100746.53
2022-10-21T01:35:38.610Z,100744.72
2022-10-21T01:38:09.151Z,100741.63
2022-10-21T01:40:50.642Z,100720.41
2022-10-21T01:43:27.424Z,100724.66
2022-10-21T01:46:00.326Z,100698.13
2022-10-21T01:48:36.327Z,100719.53
2022-10-21T01:51:06.823Z,100715.75
2022-10-21T01:53:40.432Z,100703.78
2022-10-21T01:56:09.156Z,100704.81
2022-10-21T01:58:39.318Z,100706.53
2022-10-21T02:01:09.056Z,100688.56
2022-10-21T02:03:39.452Z,100702.41
2022-10-21T02:06:06.356Z,100671.25
2022-10-21T02:08:33.355Z,100688.38
2022-10-21T02:11:05.360Z,100704.50
2022-10-21T02:13:44.656Z,100672.84
2022-10-21T02:16:16.187Z,100697.63
2022-10-21T02:18:42.945Z,100689.75
2022-10-21T02:21:19.081Z,100674.38
2022-10-21T02:23:59.170Z,100691.16
2022-10-21T02:26:28.224Z,100674.91
2022-10-21T02:28:57.877Z,100690.47
2022-10-21T02:31:36.122Z,100684.31
2022-10-21T02:34:12.715Z,100673.50
2022-10-21T02:37:04.258Z,100653.00
2022-10-21T02:39:51.845Z,100677.47
2022-10-21T02:42:28.882Z,100684.81
2022-10-21T02:44:55.629Z,100687.75
2022-10-21T02:47:25.664Z,100676.09
2022-10-21T02:49:54.593Z,100684.50
2022-10-21T02:52:21.628Z,100690.31
2022-10-21T02:54:50.738Z,100684.16
2022-10-21T02:57:17.492Z,100681.59
2022-10-21T02:59:44.130Z,100664.50
2022-10-21T03:02:11.052Z,100640.84
2022-10-21T03:04:38.085Z,100645.81
2022-10-21T03:07:04.946Z,100661.53
2022-10-21T03:09:31.505Z,100638.44
2022-10-21T03:11:58.330Z,100633.63
2022-10-21T03:14:24.963Z,100636.38
2022-10-21T03:16:52.212Z,100654.50
2022-10-21T03:19:18.920Z,100658.47
2022-10-21T03:21:48.101Z,100656.75
2022-10-21T03:24:27.784Z,100660.34
2022-10-21T03:26:56.435Z,100654.72
2022-10-21T03:29:23.078Z,100615.91
2022-10-21T03:31:52.060Z,100648.25
2022-10-21T03:34:21.026Z,100668.28
2022-10-21T03:36:50.179Z,100643.81
2022-10-21T03:39:19.014Z,100641.91
2022-10-21T03:41:46.084Z,100641.59
2022-10-21T03:44:12.782Z,100646.22
2022-10-21T03:46:39.474Z,100675.66
2022-10-21T03:49:10.139Z,100656.81
2022-10-21T03:51:40.901Z,100655.09
2022-10-21T03:54:07.462Z,100633.38
2022-10-21T03:56:36.375Z,100653.22
2022-10-21T03:59:03.175Z,100660.25
2022-10-21T04:01:32.447Z,100644.00
2022-10-21T04:03:59.164Z,100631.47
2022-10-21T04:06:25.841Z,100651.38
2022-10-21T04:08:55.357Z,100657.69
2022-10-21T04:11:24.391Z,100645.69
2022-10-21T04:13:51.066Z,100659.59
2022-10-21T04:16:19.844Z,100663.53
2022-10-21T04:18:47.046Z,100664.53
2022-10-21T04:21:14.364Z,100657.38
2022-10-21T04:23:41.277Z,100662.47
2022-10-21T04:26:11.031Z,100649.81
2022-10-21T04:28:38.214Z,100664.50
2022-10-21T04:31:04.959Z,100644.84
2022-10-21T04:33:34.461Z,100636.81
2022-10-21T04:36:01.333Z,100642.28
2022-10-21T04:38:28.681Z,100647.94
2022-10-21T04:40:59.521Z,100634.56
2022-10-21T04:43:26.984Z,100656.66
2022-10-21T04:45:56.288Z,100650.84
2022-10-21T04:48:25.601Z,100650.84
2022-10-21T04:50:53.344Z,100652.38
2022-10-21T04:53:23.187Z,100623.44
2022-10-21T04:55:54.138Z,100659.56
2022-10-21T04:58:23.327Z,100667.09
2022-10-21T05:00:51.561Z,100675.66
2022-10-21T05:03:19.620Z,100655.63
2022-10-21T05:05:50.521Z,100661.44
2022-10-21T05:08:18.250Z,100660.94
2022-10-21T05:10:49.921Z,100652.19
2022-10-21T05:13:18.926Z,100639.88
2022-10-21T05:15:45.516Z,100668.28
2022-10-21T05:18:12.135Z,100664.69
2022-10-21T05:20:38.670Z,100648.09
2022-10-21T05:23:07.532Z,100656.63
2022-10-21T05:25:34.533Z,100654.41
2022-10-21T05:28:01.407Z,100633.34
2022-10-21T05:30:28.235Z,100660.22
2022-10-21T05:32:55.008Z,100656.81
2022-10-21T05:35:21.946Z,100657.50
2022-10-21T05:37:48.656Z,100633.34
2022-10-21T05:40:18.818Z,100621.56
2022-10-21T05:42:45.995Z,100636.28
2022-10-21T05:45:13.057Z,100616.25
2022-10-21T05:47:42.910Z,100613.84
2022-10-21T05:50:11.213Z,100626.53
2022-10-21T05:52:39.178Z,100603.44
2022-10-21T05:55:06.665Z,100615.41
2022-10-21T05:57:36.852Z,100623.44
2022-10-21T06:00:06.404Z,100621.41
2022-10-21T06:02:34.020Z,100586.81
2022-10-21T06:05:00.754Z,100615.06
2022-10-21T06:07:27.381Z,100622.44
2022-10-21T06:09:56.633Z,100621.22
2022-10-21T06:12:23.249Z,100621.22
2022-10-21T06:14:49.856Z,100620.88
2022-10-21T06:17:17.078Z,100590.25
2022-10-21T06:19:47.247Z,100619.16
2022-10-21T06:22:17.082Z,100616.59
2022-10-21T06:24:43.920Z,100625.34
2022-10-21T06:27:10.601Z,100632.00
2022-10-21T06:29:37.388Z,100626.19
2022-10-21T06:32:04.260Z,100610.09
2022-10-21T06:34:31.195Z,100603.41
2022-10-21T06:36:57.911Z,100620.03
2022-10-21T06:39:27.266Z,100625.19
2022-10-21T06:41:53.924Z,100600.72
2022-10-21T06:44:25.002Z,100609.59
2022-10-21T06:46:51.899Z,100622.44
2022-10-21T06:49:18.817Z,100619.00
2022-10-21T06:51:47.759Z,100636.13
2022-10-21T06:54:14.569Z,100632.00
2022-10-21T06:56:41.331Z,100634.22
2022-10-21T06:59:08.207Z,100661.94
2022-10-21T07:01:55.302Z,100636.13
2022-10-21T07:04:24.440Z,100665.38
2022-10-21T07:06:51.120Z,100673.78
2022-10-21T07:09:20.774Z,100674.28
2022-10-21T07:11:47.748Z,100648.59
2022-10-21T07:14:14.814Z,100658.38
2022-10-21T07:16:43.866Z,100687.47
2022-10-21T07:19:13.228Z,100660.09
2022-10-21T07:21:39.830Z,100686.13
2022-10-21T07:24:06.478Z,100695.56
2022-10-21T07:26:38.606Z,100670.19
2022-10-21T07:29:06.057Z,100676.38
2022-10-21T07:31:37.337Z,100669.66
2022-10-21T07:36:40.464Z,100677.19
2022-10-21T07:39:13.297Z,100703.53
2022-10-21T07:41:46.209Z,100698.88
2022-10-21T07:44:15.604Z,100701.97
2022-10-21T07:46:43.931Z,100681.59
2022-10-21T07:49:12.581Z,100707.03
2022-10-21T07:51:42.562Z,100696.59
2022-10-21T07:54:11.944Z,100699.59
2022-10-21T07:56:44.644Z,100703.72
2022-10-21T07:59:13.275Z,100698.09
2022-10-21T08:01:44.407Z,100687.47
2022-10-21T08:04:16.586Z,100703.19
2022-10-21T08:06:46.673Z,100712.94
2022-10-21T08:09:14.271Z,100706.44
2022-10-21T08:11:41.577Z,100692.53
2022-10-21T08:14:11.941Z,100716.47
2022-10-21T08:16:39.253Z,100722.81
2022-10-21T08:19:07.049Z,100708.78
2022-10-21T08:21:34.279Z,100676.94
2022-10-21T08:24:10.441Z,100705.69
2022-10-21T08:26:38.136Z,100704.13
2022-10-21T08:29:04.960Z,100702.59
2022-10-21T08:31:32.080Z,100689.44
2022-10-21T08:33:59.475Z,100666.38
2022-10-21T08:36:26.572Z,100686.34
2022-10-21T08:38:54.275Z,100669.28
2022-10-21T08:41:30.241Z,100682.97
2022-10-21T08:44:01.821Z,100693.97
2022-10-21T08:46:34.052Z,100658.88
2022-10-21T08:49:28.579Z,100666.06
2022-10-21T08:52:03.550Z,100681.38
2022-10-21T08:54:55.172Z,100680.84
2022-10-21T08:57:22.295Z,100726.25
2022-10-21T08:59:49.856Z,100732.81
2022-10-21T09:02:32.857Z,100732.94
2022-10-21T09:05:21.901Z,100727.56
2022-10-21T09:07:57.432Z,100726.69
2022-10-21T09:10:39.249Z,100737.97
2022-10-21T09:13:32.698Z,100740.00
2022-10-21T09:16:05.409Z,100742.19
2022-10-21T09:18:52.197Z,100659.00
2022-10-21T09:21:32.052Z,100732.50
2022-10-21T09:24:06.948Z,100732.06
2022-10-21T09:26:41.903Z,100730.97
2022-10-21T09:29:36.875Z,100718.88
2022-10-21T09:32:14.889Z,100717.09
2022-10-21T09:34:52.641Z,100714.66
2022-10-21T09:37:40.514Z,100713.06
2022-10-21T09:40:29.432Z,100707.84
2022-10-21T09:43:00.807Z,100716.56
2022-10-21T09:45:41.063Z,100715.38
2022-10-21T09:48:08.231Z,100705.31
2022-10-21T09:50:36.162Z,100665.56
2022-10-21T09:53:15.157Z,100680.75
2022-10-21T09:55:46.887Z,100691.88
2022-10-21T09:58:38.486Z,100702.78
2022-10-21T10:01:08.301Z,100693.78
2022-10-21T10:03:45.723Z,100673.22
2022-10-21T10:06:15.871Z,100704.41
2022-10-21T10:08:46.281Z,100711.34
2022-10-21T10:11:18.672Z,100680.78
2022-10-21T10:13:55.040Z,100709.00
2022-10-21T10:16:33.190Z,100717.06
2022-10-21T10:19:20.028Z,100714.00
2022-10-21T10:21:51.832Z,100724.94
2022-10-21T10:24:20.509Z,100714.56
2022-10-21T10:26:48.610Z,100701.00
2022-10-21T10:29:15.138Z,100729.63
2022-10-21T10:31:50.545Z,100732.06
2022-10-21T10:34:31.340Z,100697.97
2022-10-21T10:37:16.463Z,100727.13
2022-10-21T10:39:47.837Z,100729.59
2022-10-21T10:42:24.108Z,100710.47
2022-10-21T10:44:57.634Z,100729.81
2022-10-21T10:47:49.009Z,100703.28
2022-10-21T10:50:40.392Z,100737.25
2022-10-21T10:53:21.998Z,100733.94
2022-10-21T10:55:55.069Z,100736.97
2022-10-21T10:58:27.927Z,100733.94
2022-10-21T11:00:59.722Z,100717.78
2022-10-21T11:03:41.162Z,100703.38
2022-10-21T11:06:22.021Z,100726.47
2022-10-21T11:08:52.727Z,100696.69
2022-10-21T11:11:36.289Z,100728.63
2022-10-21T11:14:03.159Z,100715.88
2022-10-21T11:16:40.762Z,100727.19
2022-10-21T11:19:29.159Z,100719.50
2022-10-21T11:22:05.782Z,100726.75
2022-10-21T11:24:51.334Z,100718.03
2022-10-21T11:27:37.910Z,100692.06
2022-10-21T11:30:14.114Z,100717.78
2022-10-21T11:33:26.628Z,100726.03
2022-10-21T11:36:39.237Z,100719.63
2022-10-21T11:39:18.267Z,100713.00
2022-10-21T11:42:11.273Z,100716.03
2022-10-21T11:44:53.224Z,100710.66
2022-10-21T11:47:34.466Z,100719.56
2022-10-21T11:50:32.744Z,100706.97
2022-10-21T11:53:21.801Z,100696.56
2022-10-21T11:56:25.253Z,100713.66
2022-10-21T11:59:27.439Z,100710.06
2022-10-21T12:02:00.827Z,100700.97
2022-10-21T12:05:01.204Z,100715.88
2022-10-21T12:07:51.092Z,100697.59
2022-10-21T12:10:23.324Z,100721.84
2022-10-21T12:12:54.958Z,100720.78
2022-10-21T12:15:38.986Z,100712.22
2022-10-21T12:18:06.460Z,100704.56
2022-10-21T12:20:33.470Z,100710.31
2022-10-21T12:23:06.304Z,100688.16
2022-10-21T12:25:44.176Z,100705.34
2022-10-21T12:28:23.595Z,100704.69
2022-10-21T12:31:00.890Z,100707.47
2022-10-21T12:33:45.933Z,100714.25
2022-10-21T12:36:20.180Z,100707.66
2022-10-21T12:38:52.492Z,100703.78
2022-10-21T12:41:25.149Z,100704.44
2022-10-21T12:44:14.943Z,100707.22
2022-10-21T12:46:47.317Z,100707.22
2022-10-21T12:49:36.185Z,100709.56
2022-10-21T12:52:02.737Z,100702.50
2022-10-21T12:54:35.855Z,100694.47
2022-10-21T12:57:06.987Z,100700.66
2022-10-21T12:59:43.791Z,100701.28
2022-10-21T13:02:21.079Z,100717.66
2022-10-21T13:04:54.909Z,100717.44
2022-10-21T13:07:30.183Z,100713.97
2022-10-21T13:09:59.790Z,100715.22
2022-10-21T13:12:30.447Z,100682.94
2022-10-21T13:14:57.356Z,100706.94
2022-10-21T13:17:26.190Z,100704.84
2022-10-21T13:19:53.755Z,100689.31
2022-10-21T13:22:23.054Z,100687.13
2022-10-21T13:24:50.149Z,100679.72
2022-10-21T13:27:30.124Z,100681.84
2022-10-21T13:29:58.090Z,100713.78
2022-10-21T13:32:28.538Z,100691.78
2022-10-21T13:34:56.894Z,100712.50
2022-10-21T13:37:35.023Z,100685.53
2022-10-21T13:40:13.466Z,100714.19
2022-10-21T13:42:44.792Z,100714.78
2022-10-21T13:45:34.978Z,100724.16
2022-10-21T13:48:23.717Z,100721.66
2022-10-21T13:50:53.248Z,100727.00
2022-10-21T13:53:22.972Z,100722.13
2022-10-21T13:56:08.162Z,100717.31
2022-10-21T13:58:41.364Z,100694.16
2022-10-21T14:01:18.871Z,100723.63
2022-10-21T14:06:36.170Z,100680.50
2022-10-21T14:09:09.372Z,100713.06
2022-10-21T14:11:48.759Z,100696.97
2022-10-21T14:14:17.855Z,100703.34
2022-10-21T14:16:51.797Z,100717.44
2022-10-21T14:19:21.791Z,100696.53
2022-10-21T14:21:54.067Z,100713.78
2022-10-21T14:24:38.919Z,100713.81
2022-10-21T14:27:06.953Z,100698.09
2022-10-21T14:29:36.400Z,100721.72
2022-10-21T14:32:04.627Z,100727.91
2022-10-21T14:34:34.994Z,100727.50
2022-10-21T14:37:01.901Z,100733.03
2022-10-21T14:39:30.751Z,100728.31
2022-10-21T14:42:04.317Z,100707.28
2022-10-21T14:44:31.501Z,100730.69
2022-10-21T14:46:59.729Z,100725.59
2022-10-21T14:49:46.620Z,100699.63
2022-10-21T14:52:49.730Z,100723.47
2022-10-21T14:55:29.610Z,100715.81
2022-10-21T14:58:03.518Z,100736.94
2022-10-21T15:00:34.576Z,100733.53
2022-10-21T15:03:02.116Z,100708.63
2022-10-21T15:05:44.118Z,100724.38
2022-10-21T15:08:20.140Z,100722.91
2022-10-21T15:11:12.111Z,100726.94
2022-10-21T15:13:38.946Z,100716.28
2022-10-21T15:16:19.569Z,100715.03
2022-10-21T15:18:49.067Z,100714.19
2022-10-21T15:21:40.169Z,100708.88
2022-10-21T15:24:17.266Z,100717.19
2022-10-21T15:26:47.517Z,100712.09
2022-10-21T15:29:27.538Z,100689.06
2022-10-21T15:31:56.482Z,100705.25
2022-10-21T15:34:23.643Z,100712.06
2022-10-21T15:36:50.730Z,100732.06
2022-10-21T15:39:17.861Z,100719.94
2022-10-21T15:41:47.476Z,100703.75
2022-10-21T15:44:25.880Z,100689.91
2022-10-21T15:46:59.349Z,100718.00
2022-10-21T15:49:31.183Z,100690.53
2022-10-21T15:51:57.891Z,100710.72
2022-10-21T15:54:25.277Z,100690.47
2022-10-21T15:56:54.945Z,100716.66
2022-10-21T15:59:33.452Z,100713.25
2022-10-21T16:02:00.891Z,100715.34
2022-10-21T16:04:27.875Z,100701.88
2022-10-21T16:06:55.169Z,100702.94
2022-10-21T16:09:25.526Z,100712.72
2022-10-21T16:12:00.343Z,100702.47
2022-10-21T16:14:30.931Z,100718.22
2022-10-21T16:16:59.117Z,100721.16
2022-10-21T16:19:25.863Z,100721.56
2022-10-21T16:21:52.544Z,100722.78
2022-10-21T16:24:19.429Z,100700.19
2022-10-21T16:26:48.299Z,100730.19
2022-10-21T16:29:20.687Z,100722.28
2022-10-21T16:31:47.605Z,100735.44
2022-10-21T16:34:14.298Z,100737.50
2022-10-21T16:36:41.437Z,100714.69
2022-10-21T16:39:16.388Z,100737.03
2022-10-21T16:41:42.996Z,100744.66
2022-10-21T16:44:12.194Z,100744.78
2022-10-21T16:46:50.680Z,100753.28
2022-10-21T16:49:21.510Z,100731.47
2022-10-21T16:51:48.375Z,100753.63
2022-10-21T16:54:15.987Z,100765.69
2022-10-21T16:56:47.537Z,100759.94
2022-10-21T16:59:14.365Z,100758.59
2022-10-21T17:01:43.858Z,100749.28
2022-10-21T17:04:18.555Z,100768.94
2022-10-21T17:06:48.387Z,100749.72
2022-10-21T17:09:17.335Z,100697.59
2022-10-21T17:11:44.060Z,100775.81
2022-10-21T17:14:20.905Z,100771.78
2022-10-21T17:16:49.885Z,100778.72
2022-10-21T17:19:16.821Z,100771.03
2022-10-21T17:21:44.720Z,100779.69
2022-10-21T17:24:15.457Z,100783.03
2022-10-21T17:26:42.650Z,100789.34
2022-10-21T17:29:12.853Z,100790.97
2022-10-21T17:31:43.377Z,100796.03
2022-10-21T17:34:23.290Z,100785.91
2022-10-21T17:36:52.352Z,100772.25
2022-10-21T17:39:19.450Z,100775.84
2022-10-21T17:44:18.129Z,100808.59
2022-10-21T17:46:47.717Z,100777.47
2022-10-21T17:49:14.468Z,100807.28
2022-10-21T17:51:41.858Z,100791.06
2022-10-21T17:54:12.062Z,100803.19
2022-10-21T17:56:41.711Z,100803.19
2022-10-21T17:59:08.904Z,100803.97
2022-10-21T18:01:38.650Z,100808.34
2022-10-21T18:04:05.624Z,100786.13
2022-10-21T18:06:32.347Z,100816.06
2022-10-21T18:08:59.646Z,100799.28
2022-10-21T18:11:26.391Z,100794.31
2022-10-21T18:13:55.273Z,100795.34
2022-10-21T18:16:24.037Z,100826.84
2022-10-21T18:18:50.933Z,100825.81
2022-10-21T18:21:20.582Z,100838.53
2022-10-21T18:23:52.460Z,100826.84
2022-10-21T18:26:27.857Z,100828.09
2022-10-21T18:28:57.300Z,100836.75
2022-10-21T18:31:26.268Z,100829.69
2022-10-21T18:33:55.235Z,100812.91
2022-10-21T18:36:22.682Z,100841.50
2022-10-21T18:38:49.673Z,100840.44
2022-10-21T18:41:20.543Z,100840.81
2022-10-21T18:43:56.344Z,100847.38
2022-10-21T18:46:25.669Z,100820.22
2022-10-21T18:48:55.041Z,100844.34
2022-10-21T18:51:23.348Z,100816.13
2022-10-21T18:53:52.799Z,100816.97
2022-10-21T18:56:25.814Z,100840.91
2022-10-21T18:58:53.398Z,100841.09
2022-10-21T19:01:22.150Z,100837.88
2022-10-21T19:03:51.034Z,100842.16
2022-10-21T19:06:41.728Z,100845.09
2022-10-21T19:09:11.480Z,100834.56
2022-10-21T19:11:38.224Z,100852.47
2022-10-21T19:14:08.379Z,100850.59
2022-10-21T19:16:41.498Z,100848.88
2022-10-21T19:19:08.485Z,100828.56
2022-10-21T19:21:35.118Z,100847.16
2022-10-21T19:24:03.299Z,100850.97
2022-10-21T19:26:34.708Z,100847.34
2022-10-21T19:29:13.627Z,100811.28
2022-10-21T19:31:41.726Z,100810.25
2022-10-21T19:34:12.832Z,100826.00
2022-10-21T19:36:39.588Z,100815.94
2022-10-21T19:39:06.402Z,100819.34
2022-10-21T19:41:33.151Z,100851.53
2022-10-21T19:43:59.772Z,100844.50
2022-10-21T19:46:28.774Z,100850.00
2022-10-21T19:48:55.891Z,100824.75
2022-10-21T19:51:25.290Z,100821.81
2022-10-21T19:53:56.212Z,100841.47
2022-10-21T19:56:26.801Z,100845.66
2022-10-21T19:58:55.067Z,100846.69
2022-10-21T20:01:24.622Z,100848.09
2022-10-21T20:03:52.203Z,100857.78
2022-10-21T20:06:22.551Z,100840.00
2022-10-21T20:08:49.708Z,100855.75
2022-10-21T20:11:18.980Z,100838.75
2022-10-21T20:13:46.133Z,100850.78
2022-10-21T20:16:18.117Z,100844.13
2022-10-21T20:18:44.931Z,100861.59
2022-10-21T20:21:12.261Z,100844.38
2022-10-21T20:23:39.027Z,100872.66
2022-10-21T20:26:06.501Z,100866.31
2022-10-21T20:28:33.103Z,100856.56
2022-10-21T20:31:05.566Z,100847.03
2022-10-21T20:33:35.728Z,100865.84
2022-10-21T20:36:04.492Z,100850.19
2022-10-21T20:38:31.867Z,100878.44
2022-10-21T20:41:06.429Z,100872.47
2022-10-21T20:43:35.446Z,100865.59
2022-10-21T20:46:08.255Z,100878.50
2022-10-21T20:48:38.235Z,100849.59
2022-10-21T20:51:07.615Z,100882.66
2022-10-21T20:53:35.247Z,100868.28
2022-10-21T20:56:05.880Z,100861.59
2022-10-21T20:58:37.913Z,100809.97
2022-10-21T21:01:23.031Z,100867.16
2022-10-21T21:03:50.882Z,100892.84
2022-10-21T21:06:18.159Z,100884.13
2022-10-21T21:08:49.285Z,100895.28
2022-10-21T21:11:25.303Z,100882.63
2022-10-21T21:13:52.091Z,100868.63
2022-10-21T21:16:21.577Z,100872.03
2022-10-21T21:18:56.175Z,100886.25
2022-10-21T21:21:25.561Z,100897.94
2022-10-21T21:23:53.859Z,100897.06
2022-10-21T21:26:28.696Z,100886.63
2022-10-21T21:28:55.788Z,100905.81
2022-10-21T21:31:25.559Z,100879.09
2022-10-21T21:33:55.437Z,100882.53
2022-10-21T21:36:22.645Z,100868.31
2022-10-21T21:38:50.621Z,100900.66
2022-10-21T21:41:19.100Z,100899.81
2022-10-21T21:43:48.172Z,100906.56
2022-10-21T21:46:23.866Z,100862.34
2022-10-21T21:48:56.048Z,100902.97
2022-10-21T21:51:25.819Z,100904.19
2022-10-21T21:53:52.979Z,100899.06
2022-10-21T21:56:23.133Z,100902.84
2022-10-21T21:58:51.185Z,100880.03
2022-10-21T22:01:25.959Z,100873.84
2022-10-21T22:03:53.137Z,100906.25
2022-10-21T22:08:52.095Z,100905.44
2022-10-21T22:11:21.814Z,100906.28
2022-10-21T22:13:48.623Z,100911.25
2022-10-21T22:16:22.237Z,100892.38
2022-10-21T22:18:51.891Z,100868.41
2022-10-21T22:21:21.401Z,100872.38
2022-10-21T22:23:49.576Z,100900.63
2022-10-21T22:26:23.447Z,100908.00
2022-10-21T22:28:50.083Z,100903.72
2022-10-21T22:31:18.112Z,100893.44
2022-10-21T22:33:45.397Z,100901.13
2022-10-21T22:36:12.268Z,100897.72
2022-10-21T22:38:41.189Z,100907.00
2022-10-21T22:41:12.255Z,100874.09
2022-10-21T22:43:39.439Z,100894.16
2022-10-21T22:46:21.689Z,100905.31
2022-10-21T22:48:52.858Z,100896.75
2022-10-21T22:51:19.793Z,100897.13
2022-10-21T22:53:53.575Z,100868.31
2022-10-21T22:56:25.973Z,100872.94
2022-10-21T22:58:52.714Z,100891.13
2022-10-21T23:01:20.222Z,100825.16
2022-10-21T23:03:46.970Z,100875.16
2022-10-21T23:06:14.269Z,100892.69
2022-10-21T23:08:41.120Z,100887.53
2022-10-21T23:11:07.921Z,100886.16
2022-10-21T23:13:34.645Z,100861.31
2022-10-21T23:16:01.604Z,100884.97
2022-10-21T23:18:28.334Z,100885.66
2022-10-21T23:20:57.359Z,100875.19
2022-10-21T23:23:24.237Z,100890.63
2022-10-21T23:25:50.856Z,100868.38
2022-10-21T23:30:45.296Z,100886.00
2022-10-21T23:33:11.985Z,100889.59
2022-10-21T23:35:41.149Z,100893.91
2022-10-21T23:38:07.822Z,100862.00
2022-10-21T23:40:34.469Z,100899.91
2022-10-21T23:43:01.360Z,100903.53
2022-10-21T23:45:28.864Z,100884.13
2022-10-21T23:47:55.575Z,100897.00
2022-10-21T23:50:25.611Z,100901.63
2022-10-21T23:52:54.635Z,100841.47
2022-10-21T23:55:21.569Z,100900.59
2022-10-21T23:57:48.352Z,100915.88
